createdAt,value
2023-02-23T06:03:19.482Z,25.00
2023-02-23T06:04:20.436Z,25.00
2023-02-23T08:16:25.044Z,72.13
2023-02-23T08:17:25.018Z,72.96
2023-02-23T08:19:25.020Z,76.03
2023-02-23T08:20:25.043Z,73.81
2023-02-23T08:21:25.048Z,74.17
2023-02-23T08:22:25.097Z,72.79
2023-02-23T08:23:25.109Z,74.13
2023-02-23T08:24:25.145Z,77.64
2023-02-23T08:26:25.182Z,72.60
2023-02-23T08:27:25.329Z,74.53
2023-02-23T08:29:25.250Z,70.96
2023-02-23T08:30:25.301Z,72.45
2023-02-23T08:32:25.392Z,75.41
2023-02-23T08:33:25.362Z,69.48
2023-02-23T08:34:25.385Z,76.30
2023-02-23T08:35:25.399Z,74.28
2023-02-23T08:36:25.429Z,74.83
2023-02-23T08:37:25.508Z,72.75
2023-02-23T08:38:25.504Z,75.62
2023-02-23T08:40:25.575Z,64.24
2023-02-23T08:41:25.591Z,70.56
2023-02-23T08:42:25.619Z,71.67
2023-02-23T08:43:25.633Z,65.22
2023-02-23T08:44:25.626Z,65.94
2023-02-23T08:45:25.635Z,75.25
2023-02-23T08:46:25.672Z,70.55
2023-02-23T08:47:25.866Z,74.35
2023-02-23T08:48:25.679Z,76.58
2023-02-23T08:49:25.686Z,68.68
2023-02-23T08:50:27.411Z,69.42
2023-02-23T08:51:25.723Z,68.25
2023-02-23T08:53:25.836Z,50.40
2023-02-23T08:54:25.716Z,30.34
2023-02-23T08:55:25.695Z,28.08
2023-02-23T08:57:25.662Z,30.79
2023-02-23T08:58:25.655Z,29.02
2023-02-23T08:59:25.740Z,25.56
2023-02-23T09:00:25.652Z,36.12
2023-02-23T09:01:25.800Z,25.90
2023-02-23T09:02:25.666Z,25.00
2023-02-23T09:03:25.632Z,25.70
2023-02-23T09:04:25.618Z,27.79
2023-02-23T09:06:25.614Z,23.22
2023-02-23T09:07:25.613Z,25.00
2023-02-23T09:08:25.597Z,30.64
2023-02-23T09:09:25.579Z,29.11
2023-02-23T09:10:25.571Z,29.02
2023-02-23T09:13:25.559Z,52.61
2023-02-23T09:14:25.547Z,54.18
2023-02-23T09:15:25.639Z,52.86
2023-02-23T09:16:25.557Z,49.51
2023-02-23T09:17:25.535Z,48.71
2023-02-23T09:18:25.518Z,49.99
2023-02-23T09:19:25.515Z,51.30
2023-02-23T09:23:25.500Z,43.16
2023-02-23T09:24:25.482Z,42.32
2023-02-23T09:25:25.490Z,38.68
2023-02-23T09:26:25.454Z,42.16
2023-02-23T09:28:25.448Z,31.00
2023-02-23T09:29:25.435Z,35.17
2023-02-23T09:30:25.440Z,36.32
2023-02-23T09:31:25.656Z,34.25
2023-02-23T09:32:25.602Z,37.52
2023-02-23T09:36:25.424Z,71.20
2023-02-23T09:37:25.403Z,49.45
2023-02-23T09:38:25.392Z,42.25
2023-02-23T09:40:25.373Z,60.40
2023-02-23T09:43:25.374Z,27.90
2023-02-23T09:44:25.334Z,33.05
2023-02-23T09:46:25.361Z,25.00
2023-02-23T09:47:25.407Z,28.60
2023-02-23T09:48:25.442Z,31.31
2023-02-23T09:52:25.622Z,40.64
2023-02-23T09:53:25.619Z,49.94
2023-02-23T09:54:25.621Z,35.63
2023-02-23T09:55:25.642Z,37.12
2023-02-23T09:56:25.696Z,32.75
2023-02-23T09:57:25.738Z,29.35
2023-02-23T09:59:25.856Z,42.81
2023-02-23T10:02:25.958Z,45.69
2023-02-23T10:04:26.087Z,57.51
2023-02-23T10:05:25.972Z,48.73
2023-02-23T10:06:26.000Z,40.64
2023-02-23T10:07:25.021Z,47.59
2023-02-23T10:08:26.030Z,52.46
2023-02-23T10:09:26.064Z,49.61
2023-02-23T10:10:26.196Z,47.24
2023-02-23T10:11:26.205Z,31.84
2023-02-23T10:12:26.251Z,40.06
2023-02-23T10:13:26.308Z,38.37
2023-02-23T10:14:26.369Z,37.95
2023-02-23T10:15:26.439Z,39.22
2023-02-23T10:16:26.496Z,41.44
2023-02-23T10:17:26.557Z,33.35
2023-02-23T10:18:35.952Z,42.32
2023-02-23T10:19:26.635Z,42.59
2023-02-23T10:20:25.590Z,39.71
2023-02-23T10:21:26.600Z,41.57
2023-02-23T10:22:26.592Z,42.69
2023-02-23T10:23:26.587Z,49.86
2023-02-23T10:24:26.587Z,48.59
2023-02-23T10:25:26.569Z,47.30
2023-02-23T10:26:25.557Z,45.64
2023-02-23T10:27:26.549Z,37.99
2023-02-23T10:28:26.553Z,27.42
2023-02-23T10:29:26.560Z,64.80
2023-02-23T10:30:26.650Z,50.62
2023-02-23T10:31:26.763Z,48.69
2023-02-23T10:32:25.811Z,57.88
2023-02-23T10:33:26.938Z,44.91
2023-02-23T10:34:25.750Z,44.54
2023-02-23T10:35:26.882Z,42.54
2023-02-23T10:36:27.410Z,43.22
2023-02-23T10:37:27.602Z,46.06
2023-02-23T10:38:27.576Z,44.71
2023-02-23T10:39:27.501Z,28.26
2023-02-23T10:40:27.557Z,31.34
2023-02-23T10:41:27.706Z,36.07
2023-02-23T10:42:27.591Z,33.78
2023-02-23T10:43:26.234Z,16.85
2023-02-23T10:44:27.527Z,28.89
2023-02-23T10:45:26.307Z,38.80
2023-02-23T10:46:27.387Z,48.26
2023-02-23T10:47:27.722Z,47.92
2023-02-23T10:48:27.024Z,45.74
2023-02-23T10:49:26.476Z,50.79
2023-02-23T10:50:27.685Z,48.34
2023-02-23T10:51:27.686Z,41.78
2023-02-23T10:52:27.654Z,38.98
2023-02-23T10:53:27.834Z,43.08
2023-02-23T10:54:27.666Z,45.21
2023-02-23T10:55:26.674Z,51.16
2023-02-23T10:56:27.372Z,37.94
2023-02-23T10:57:26.725Z,41.74
2023-02-23T10:58:26.866Z,50.00
2023-02-23T10:59:27.706Z,48.35
2023-02-23T11:00:26.738Z,41.15
2023-02-23T11:01:27.810Z,47.01
2023-02-23T11:02:26.778Z,46.63
2023-02-23T11:03:26.735Z,45.24
2023-02-23T11:04:27.786Z,40.85
2023-02-23T11:05:27.064Z,43.27
2023-02-23T11:06:26.741Z,42.37
2023-02-23T11:07:27.930Z,44.36
2023-02-23T11:08:27.258Z,44.38
2023-02-23T11:09:43.765Z,39.13
2023-02-23T11:10:27.828Z,39.35
2023-02-23T11:11:27.779Z,40.61
2023-02-23T11:12:27.783Z,43.10
2023-02-23T11:13:27.760Z,42.70
2023-02-23T11:14:27.773Z,44.17
2023-02-23T11:15:39.357Z,49.22
2023-02-23T11:16:27.856Z,49.44
2023-02-23T11:17:26.793Z,43.17
2023-02-23T11:18:28.407Z,34.20
2023-02-23T11:19:26.737Z,26.44
2023-02-23T11:20:27.792Z,35.52
2023-02-23T11:21:27.718Z,32.02
2023-02-23T11:22:27.716Z,37.94
2023-02-23T11:23:27.738Z,39.04
2023-02-23T11:24:27.700Z,36.10
2023-02-23T11:25:26.701Z,31.63
2023-02-23T11:26:27.770Z,30.83
2023-02-23T11:27:27.801Z,35.76
2023-02-23T11:28:27.865Z,35.18
2023-02-23T11:29:27.918Z,32.14
2023-02-23T11:30:28.055Z,29.24
2023-02-23T11:31:28.196Z,31.90
2023-02-23T11:32:28.324Z,29.09
2023-02-23T11:34:28.226Z,29.35
2023-02-23T11:35:28.297Z,30.58
2023-02-23T11:52:28.946Z,48.38
2023-02-23T11:57:29.041Z,42.63
2023-02-23T12:00:29.151Z,48.10
2023-02-23T13:15:31.733Z,64.74
2023-02-23T15:14:33.763Z,71.52
2023-02-23T15:15:32.792Z,75.91
2023-02-23T15:16:33.825Z,78.33
2023-02-23T15:21:33.963Z,33.05
2023-02-23T15:22:34.011Z,26.98
2023-02-23T15:23:34.134Z,25.00
2023-02-23T15:24:34.137Z,25.23
2023-02-23T15:25:34.198Z,33.00
2023-02-23T15:26:33.282Z,34.45
2023-02-23T15:27:33.333Z,34.39
2023-02-23T15:28:34.373Z,31.29
2023-02-23T15:29:33.442Z,29.66
2023-02-23T15:30:34.505Z,29.19
2023-02-23T15:31:34.921Z,25.00
2023-02-23T15:32:34.808Z,25.01
2023-02-23T15:33:33.619Z,25.00
2023-02-23T15:34:33.670Z,26.42
2023-02-23T15:35:33.690Z,25.56
2023-02-23T15:36:34.750Z,29.29
2023-02-23T15:37:33.706Z,26.48
2023-02-23T15:38:43.605Z,25.56
2023-02-23T15:39:34.768Z,25.85
2023-02-23T15:40:33.749Z,28.02
2023-02-23T15:41:34.754Z,29.10
2023-02-23T15:42:34.715Z,25.14
2023-02-23T15:43:34.712Z,19.15
2023-02-23T15:44:43.635Z,25.00
2023-02-23T15:45:34.755Z,25.35
2023-02-23T15:46:34.685Z,25.90
2023-02-23T15:47:33.678Z,25.47
2023-02-23T15:48:34.691Z,25.07
2023-02-23T15:49:34.707Z,24.12
2023-02-23T15:50:37.075Z,26.30
2023-02-23T15:51:33.687Z,26.46
2023-02-23T15:52:34.655Z,20.35
2023-02-23T15:53:33.660Z,20.03
2023-02-23T15:54:34.661Z,16.02
2023-02-23T15:55:34.671Z,15.63
2023-02-23T15:56:33.644Z,27.95
2023-02-23T15:57:34.624Z,28.43
2023-02-23T15:58:36.210Z,31.74
2023-02-23T15:59:34.600Z,31.77
2023-02-23T16:00:34.595Z,30.98
2023-02-23T16:01:33.597Z,25.38
2023-02-23T16:02:34.579Z,26.99
2023-02-23T16:03:34.614Z,26.29
2023-02-23T16:04:34.574Z,30.32
2023-02-23T16:05:38.338Z,30.17
2023-02-23T16:06:34.564Z,30.53
2023-02-23T16:07:34.549Z,30.70
2023-02-23T16:08:36.575Z,32.93
2023-02-23T16:09:34.561Z,30.71
2023-02-23T16:10:34.525Z,31.48
2023-02-23T16:11:34.560Z,34.26
2023-02-23T16:12:33.504Z,38.37
2023-02-23T16:13:34.498Z,45.30
2023-02-23T16:14:34.485Z,46.27
2023-02-23T16:15:34.522Z,46.18
2023-02-23T16:16:33.589Z,42.46
2023-02-23T16:17:34.471Z,40.60
2023-02-23T16:18:33.467Z,35.95
2023-02-23T16:19:33.460Z,34.07
2023-02-23T16:20:34.465Z,35.72
2023-02-23T16:21:34.458Z,42.37
2023-02-23T16:22:34.443Z,42.34
2023-02-23T16:23:34.731Z,36.62
2023-02-23T16:24:33.423Z,44.32
2023-02-23T16:25:34.442Z,41.15
2023-02-23T16:26:34.421Z,43.17
2023-02-23T16:27:34.440Z,46.58
2023-02-23T16:28:33.418Z,45.93
2023-02-23T16:29:34.403Z,45.32
